createdAt,value
2023-04-14T00:00:08.930Z,69.09
2023-04-14T00:02:45.223Z,68.82
2023-04-14T00:05:15.781Z,70.04
2023-04-14T00:07:44.609Z,69.02
2023-04-14T00:10:15.701Z,69.22
2023-04-14T00:12:44.444Z,68.79
2023-04-14T00:15:13.796Z,69.11
2023-04-14T00:17:42.530Z,69.46
2023-04-14T00:20:12.006Z,68.76
2023-04-14T00:22:42.158Z,69.12
2023-04-14T00:25:11.448Z,69.10
2023-04-14T00:27:40.309Z,68.99
2023-04-14T00:30:11.445Z,69.42
2023-04-14T00:32:41.219Z,69.24
2023-04-14T00:35:10.577Z,69.36
2023-04-14T00:37:39.353Z,69.24
2023-04-14T00:40:12.036Z,69.19
2023-04-14T00:42:45.228Z,69.52
2023-04-14T00:45:15.616Z,69.38
2023-04-14T00:47:49.355Z,69.29
2023-04-14T00:50:20.889Z,69.34
2023-04-14T00:52:59.307Z,69.30
2023-04-14T00:55:31.044Z,69.35
2023-04-14T00:58:00.102Z,69.47
2023-04-14T01:00:29.048Z,69.10
2023-04-14T01:03:01.626Z,69.51
2023-04-14T01:05:30.725Z,70.21
2023-04-14T01:07:59.846Z,70.11
2023-04-14T01:10:42.144Z,70.10
2023-04-14T01:13:33.828Z,70.15
2023-04-14T01:16:19.234Z,70.23
2023-04-14T01:19:00.319Z,69.99
2023-04-14T01:21:42.869Z,70.18
2023-04-14T01:24:48.903Z,70.23
2023-04-14T01:27:42.060Z,70.53
2023-04-14T01:30:34.370Z,70.24
2023-04-14T01:33:09.344Z,70.30
2023-04-14T01:35:43.668Z,70.61
2023-04-14T01:38:22.122Z,70.34
2023-04-14T01:40:57.491Z,70.29
2023-04-14T01:43:33.389Z,70.19
2023-04-14T01:46:13.881Z,70.53
2023-04-14T01:48:45.787Z,70.40
2023-04-14T01:51:19.917Z,70.81
2023-04-14T01:53:52.133Z,70.58
2023-04-14T01:56:22.956Z,71.64
2023-04-14T01:58:54.547Z,72.59
2023-04-14T02:01:24.000Z,72.38
2023-04-14T02:03:54.751Z,71.73
2023-04-14T02:06:27.617Z,72.01
2023-04-14T02:08:58.076Z,72.09
2023-04-14T02:11:30.742Z,72.69
2023-04-14T02:14:03.344Z,72.58
2023-04-14T02:16:35.482Z,72.70
2023-04-14T02:19:06.936Z,72.58
2023-04-14T02:21:37.147Z,72.37
2023-04-14T02:24:06.617Z,72.89
2023-04-14T02:26:41.694Z,74.67
2023-04-14T02:29:16.540Z,74.80
2023-04-14T02:32:01.927Z,76.31
2023-04-14T02:34:39.537Z,76.02
2023-04-14T02:37:19.188Z,75.73
2023-04-14T02:40:02.153Z,75.68
2023-04-14T02:42:35.949Z,75.13
2023-04-14T02:45:10.539Z,75.69
2023-04-14T02:47:45.891Z,75.56
2023-04-14T02:50:20.651Z,76.11
2023-04-14T02:53:01.892Z,75.98
2023-04-14T02:55:37.723Z,76.26
2023-04-14T02:58:07.618Z,76.39
2023-04-14T03:00:41.919Z,76.18
2023-04-14T03:03:13.368Z,75.88
2023-04-14T03:05:46.530Z,76.20
2023-04-14T03:08:18.356Z,76.10
2023-04-14T03:10:53.102Z,76.46
2023-04-14T03:13:28.684Z,76.06
2023-04-14T03:15:59.742Z,77.59
2023-04-14T03:18:33.545Z,78.28
2023-04-14T03:21:05.935Z,77.48
2023-04-14T03:23:37.732Z,77.55
2023-04-14T03:26:18.550Z,77.63
2023-04-14T03:28:50.841Z,77.47
2023-04-14T03:31:22.442Z,78.15
2023-04-14T03:33:58.590Z,80.31
2023-04-14T03:36:36.770Z,79.59
2023-04-14T03:39:09.285Z,79.02
2023-04-14T03:41:51.736Z,79.99
2023-04-14T03:44:23.842Z,79.49
2023-04-14T03:46:54.671Z,79.41
2023-04-14T03:49:27.093Z,79.40
2023-04-14T03:57:17.645Z,80.96
2023-04-14T03:59:50.947Z,81.09
2023-04-14T04:02:24.736Z,80.68
2023-04-14T04:04:55.902Z,80.82
2023-04-14T04:07:28.612Z,81.96
2023-04-14T04:09:59.139Z,82.73
2023-04-14T04:12:31.070Z,83.27
2023-04-14T04:15:00.744Z,83.67
2023-04-14T04:17:33.930Z,83.74
2023-04-14T04:20:26.362Z,84.26
2023-04-14T04:23:02.926Z,85.20
2023-04-14T04:25:33.376Z,86.30
2023-04-14T04:28:11.278Z,86.15
2023-04-14T04:30:41.927Z,85.48
2023-04-14T04:34:28.968Z,86.50
2023-04-14T04:38:38.554Z,86.81
2023-04-14T04:41:22.188Z,86.48
2023-04-14T04:43:54.119Z,86.82
2023-04-14T04:46:45.461Z,85.73
2023-04-14T04:49:14.948Z,86.44
2023-04-14T04:51:44.478Z,86.78
2023-04-14T04:54:13.583Z,86.24
2023-04-14T04:56:42.369Z,86.69
2023-04-14T04:59:12.618Z,86.22
2023-04-14T05:01:43.498Z,85.47
2023-04-14T05:04:12.342Z,86.00
2023-04-14T05:06:41.101Z,86.08
2023-04-14T05:09:09.998Z,86.02
2023-04-14T05:11:38.671Z,85.81
2023-04-14T05:14:07.325Z,86.46
2023-04-14T05:16:38.714Z,86.49
2023-04-14T05:19:07.705Z,86.20
2023-04-14T05:21:36.600Z,86.02
2023-04-14T05:24:06.079Z,85.60
2023-04-14T05:26:57.833Z,85.37
2023-04-14T05:29:23.662Z,85.20
2023-04-14T05:32:07.602Z,85.15
2023-04-14T05:34:36.785Z,85.52
2023-04-14T05:37:06.144Z,84.91
2023-04-14T05:39:34.896Z,84.71
2023-04-14T05:42:03.582Z,83.95
2023-04-14T05:44:32.367Z,84.46
2023-04-14T05:47:01.726Z,84.42
2023-04-14T05:49:32.586Z,84.50
2023-04-14T05:52:01.289Z,85.20
2023-04-14T05:54:30.177Z,84.68
2023-04-14T05:56:59.968Z,84.70
2023-04-14T05:59:28.850Z,84.97
2023-04-14T06:01:57.704Z,85.12
2023-04-14T06:04:26.655Z,84.76
2023-04-14T06:06:58.668Z,85.18
2023-04-14T06:09:27.431Z,84.49
2023-04-14T06:11:56.752Z,84.81
2023-04-14T06:14:25.689Z,85.48
2023-04-14T06:16:54.527Z,86.37
2023-04-14T06:19:24.115Z,86.15
2023-04-14T06:21:53.939Z,85.89
2023-04-14T06:24:24.109Z,85.44
2023-04-14T06:26:53.197Z,86.21
2023-04-14T06:29:21.898Z,85.82
2023-04-14T06:31:54.953Z,85.48
2023-04-14T06:34:23.882Z,85.79
2023-04-14T06:36:53.126Z,85.52
2023-04-14T06:41:00.840Z,85.95
2023-04-14T06:43:29.659Z,86.61
2023-04-14T06:45:59.699Z,86.10
2023-04-14T06:48:37.010Z,85.84
2023-04-14T06:51:07.752Z,86.14
2023-04-14T06:53:36.601Z,85.52
2023-04-14T06:56:08.308Z,85.90
2023-04-14T06:58:37.274Z,85.88
2023-04-14T07:01:06.247Z,86.14
2023-04-14T07:06:17.354Z,86.93
2023-04-14T07:08:51.316Z,86.54
2023-04-14T07:11:21.609Z,87.02
2023-04-14T07:13:51.137Z,87.01
2023-04-14T07:16:51.159Z,87.46
2023-04-14T07:19:20.524Z,86.82
2023-04-14T07:21:49.904Z,86.13
2023-04-14T07:24:25.084Z,87.43
2023-04-14T07:26:56.262Z,87.35
2023-04-14T07:29:27.278Z,87.20
2023-04-14T07:31:56.789Z,87.29
2023-04-14T07:34:25.679Z,87.05
2023-04-14T07:37:46.143Z,87.03
2023-04-14T07:40:15.257Z,86.67
2023-04-14T07:42:45.841Z,86.48
2023-04-14T07:45:14.846Z,85.98
2023-04-14T07:47:43.853Z,86.23
2023-04-14T07:50:32.064Z,84.89
2023-04-14T07:53:01.052Z,84.87
2023-04-14T07:55:29.847Z,86.03
2023-04-14T07:58:02.148Z,86.26
2023-04-14T08:00:31.941Z,86.38
2023-04-14T08:03:01.599Z,86.08
2023-04-14T08:05:52.676Z,86.66
2023-04-14T08:09:01.736Z,86.91
2023-04-14T08:11:31.505Z,86.63
2023-04-14T08:14:02.149Z,86.99
2023-04-14T08:16:31.420Z,87.09
2023-04-14T08:19:00.762Z,87.26
2023-04-14T08:21:29.869Z,88.12
2023-04-14T08:23:58.638Z,89.06
2023-04-14T08:26:28.664Z,89.11
2023-04-14T08:29:02.963Z,89.56
2023-04-14T08:31:55.859Z,89.61
2023-04-14T08:34:29.015Z,89.75
2023-04-14T08:37:00.569Z,89.94
2023-04-14T08:39:38.635Z,90.18
2023-04-14T08:42:10.645Z,90.33
2023-04-14T08:44:41.406Z,90.87
2023-04-14T08:48:06.051Z,90.86
2023-04-14T08:50:42.559Z,91.43
2023-04-14T08:53:12.015Z,91.40
2023-04-14T08:55:42.667Z,92.09
2023-04-14T08:58:12.539Z,90.94
2023-04-14T09:01:05.361Z,90.46
2023-04-14T09:04:55.519Z,90.70
2023-04-14T09:07:27.720Z,90.96
2023-04-14T09:10:50.393Z,90.74
2023-04-14T09:14:09.294Z,89.72
2023-04-14T09:16:48.904Z,90.62
2023-04-14T09:19:18.333Z,90.87
2023-04-14T09:22:16.124Z,90.78
2023-04-14T09:24:45.857Z,91.36
2023-04-14T09:28:05.613Z,91.29
2023-04-14T09:30:35.409Z,91.11
2023-04-14T09:33:08.688Z,89.64
2023-04-14T09:35:48.665Z,90.25
2023-04-14T09:38:42.993Z,90.11
2023-04-14T09:41:18.434Z,89.44
2023-04-14T09:43:47.427Z,89.63
2023-04-14T09:46:58.120Z,89.38
2023-04-14T09:49:31.320Z,88.60
2023-04-14T09:52:08.296Z,88.96
2023-04-14T09:55:11.526Z,89.16
2023-04-14T09:57:45.101Z,88.66
2023-04-14T10:00:22.723Z,88.35
2023-04-14T10:02:56.522Z,88.25
2023-04-14T10:05:31.055Z,87.85
2023-04-14T10:08:05.428Z,89.20
2023-04-14T10:10:40.139Z,89.19
2023-04-14T10:13:19.523Z,88.54
2023-04-14T10:15:52.268Z,89.38
2023-04-14T10:18:22.169Z,89.41
2023-04-14T10:20:54.488Z,89.29
2023-04-14T10:23:23.890Z,90.40
2023-04-14T10:25:53.821Z,90.50
2023-04-14T10:28:24.009Z,91.35
2023-04-14T10:30:55.892Z,90.15
2023-04-14T10:33:26.934Z,89.96
2023-04-14T10:36:02.181Z,90.01
2023-04-14T10:38:47.421Z,90.72
2023-04-14T10:42:12.218Z,89.17
2023-04-14T10:48:56.886Z,90.70
2023-04-14T10:52:39.394Z,91.24
2023-04-14T10:55:12.394Z,91.04
2023-04-14T10:59:03.355Z,92.22
2023-04-14T11:02:00.429Z,92.02
2023-04-14T11:05:05.269Z,92.07
2023-04-14T11:08:01.597Z,91.36
2023-04-14T11:10:48.746Z,91.42
2023-04-14T11:13:18.216Z,91.51
2023-04-14T11:15:58.162Z,91.15
2023-04-14T11:18:45.310Z,90.79
2023-04-14T11:21:18.212Z,92.19
2023-04-14T11:23:48.179Z,91.66
2023-04-14T11:26:44.384Z,92.15
2023-04-14T11:29:13.417Z,91.76
2023-04-14T11:31:49.285Z,91.05
2023-04-14T11:34:25.768Z,90.74
2023-04-14T11:37:05.344Z,90.77
2023-04-14T11:40:56.843Z,91.30
2023-04-14T11:43:49.077Z,91.05
2023-04-14T11:46:22.249Z,90.92
2023-04-14T11:48:57.352Z,91.50
2023-04-14T11:51:33.896Z,90.26
2023-04-14T11:54:03.569Z,90.53
2023-04-14T11:56:34.884Z,89.28
2023-04-14T11:59:06.791Z,89.92
2023-04-14T12:01:35.985Z,89.97
2023-04-14T12:04:17.819Z,89.69
2023-04-14T12:07:21.118Z,90.83
2023-04-14T12:14:35.558Z,89.64
2023-04-14T12:18:30.614Z,89.87
2023-04-14T12:21:34.522Z,88.58
2023-04-14T12:24:12.869Z,88.20
2023-04-14T12:26:46.276Z,87.86
2023-04-14T12:29:31.300Z,88.65
2023-04-14T12:32:02.366Z,88.37
2023-04-14T12:34:31.912Z,88.79
2023-04-14T12:37:12.276Z,89.10
2023-04-14T12:39:58.316Z,88.82
2023-04-14T12:42:43.985Z,88.73
2023-04-14T12:45:21.915Z,88.74
2023-04-14T12:48:45.180Z,89.13
2023-04-14T12:51:20.645Z,88.97
2023-04-14T12:53:53.722Z,89.42
2023-04-14T12:58:05.098Z,90.06
2023-04-14T13:00:34.208Z,89.69
2023-04-14T13:03:04.001Z,91.86
2023-04-14T13:05:33.456Z,91.08
2023-04-14T13:08:33.484Z,91.45
2023-04-14T13:11:12.648Z,91.14
2023-04-14T13:13:44.603Z,91.97
2023-04-14T13:16:20.361Z,91.55
2023-04-14T13:18:56.700Z,92.77
2023-04-14T13:22:16.713Z,93.24
2023-04-14T13:24:47.653Z,92.53
2023-04-14T13:27:20.863Z,92.29
2023-04-14T13:29:49.942Z,92.71
2023-04-14T13:37:32.191Z,91.49
2023-04-14T13:40:41.658Z,91.81
2023-04-14T13:46:41.188Z,91.95
2023-04-14T13:50:17.365Z,91.50
2023-04-14T13:52:36.447Z,90.65
2023-04-14T13:55:08.216Z,90.62
2023-04-14T13:57:38.554Z,91.31
2023-04-14T14:00:16.606Z,91.57
2023-04-14T14:02:46.842Z,91.49
2023-04-14T14:05:28.572Z,91.94
2023-04-14T14:08:38.161Z,92.48
2023-04-14T14:11:20.365Z,92.33
2023-04-14T14:13:53.068Z,92.31
2023-04-14T14:23:34.096Z,93.96
2023-04-14T14:26:42.109Z,94.30
2023-04-14T14:29:25.083Z,94.73
2023-04-14T14:31:56.604Z,95.01
2023-04-14T14:34:25.779Z,94.71
2023-04-14T14:36:59.340Z,94.95
2023-04-14T14:40:31.465Z,95.33
2023-04-14T14:47:20.130Z,95.45
2023-04-14T14:49:59.984Z,95.14
2023-04-14T14:52:34.080Z,94.89
2023-04-14T14:55:04.686Z,94.99
2023-04-14T14:57:34.096Z,94.94
2023-04-14T15:00:03.766Z,95.12
2023-04-14T15:02:35.388Z,95.55
2023-04-14T15:05:04.839Z,95.36
2023-04-14T15:07:35.159Z,95.12
2023-04-14T15:10:08.552Z,95.37
2023-04-14T15:12:37.484Z,95.97
2023-04-14T15:15:13.434Z,96.46
2023-04-14T15:17:46.100Z,96.08
2023-04-14T15:20:15.738Z,96.40
2023-04-14T15:24:08.846Z,96.85
2023-04-14T15:26:38.095Z,97.05
2023-04-14T15:29:09.211Z,97.28
2023-04-14T15:31:38.939Z,97.20
2023-04-14T15:34:38.835Z,97.59
2023-04-14T15:37:07.784Z,97.78
2023-04-14T15:40:01.182Z,97.85
2023-04-14T15:42:33.764Z,98.28
2023-04-14T15:45:03.434Z,98.63
2023-04-14T15:47:32.364Z,98.88
2023-04-14T15:50:09.112Z,99.22
2023-04-14T15:52:40.147Z,99.32
2023-04-14T15:55:11.410Z,99.67
2023-04-14T16:02:11.465Z,99.43
2023-04-14T16:04:40.872Z,99.09
2023-04-14T16:07:11.342Z,100.00
2023-04-14T16:09:40.583Z,99.93
2023-04-14T16:12:10.097Z,99.95
2023-04-14T16:14:38.863Z,100.00
2023-04-14T16:17:07.739Z,100.00
2023-04-14T16:21:13.989Z,100.00
2023-04-14T16:25:06.441Z,100.00
2023-04-14T16:32:26.028Z,100.00
2023-04-14T16:34:54.927Z,100.00
2023-04-14T16:37:26.035Z,100.00
2023-04-14T16:40:11.679Z,100.00
2023-04-14T16:42:40.992Z,100.00
2023-04-14T16:45:11.047Z,100.00
2023-04-14T16:48:07.596Z,100.00
2023-04-14T16:50:40.343Z,100.00
2023-04-14T16:53:12.520Z,100.00
2023-04-14T16:57:10.904Z,100.00
2023-04-14T16:59:40.004Z,100.00
2023-04-14T17:03:07.606Z,100.00
2023-04-14T17:05:36.690Z,100.00
2023-04-14T17:08:06.040Z,100.00
2023-04-14T17:10:34.861Z,100.00
2023-04-14T17:13:04.187Z,100.00
2023-04-14T17:15:39.566Z,100.00
2023-04-14T17:18:25.251Z,100.00
2023-04-14T17:20:57.173Z,100.00
2023-04-14T17:23:52.516Z,100.00
2023-04-14T17:26:21.822Z,100.00
2023-04-14T17:29:09.706Z,100.00
2023-04-14T17:31:46.656Z,100.00
2023-04-14T17:34:49.001Z,100.00
2023-04-14T17:37:37.206Z,99.79
2023-04-14T17:40:09.041Z,99.87
2023-04-14T17:42:38.776Z,100.00
2023-04-14T17:46:05.167Z,99.58
2023-04-14T17:48:41.597Z,99.42
2023-04-14T17:51:39.820Z,99.79
2023-04-14T17:54:09.026Z,99.78
2023-04-14T17:56:51.063Z,99.57
2023-04-14T17:59:33.543Z,99.37
2023-04-14T18:02:04.054Z,99.12
2023-04-14T18:04:48.041Z,98.68
2023-04-14T18:08:07.751Z,99.01
2023-04-14T18:11:16.740Z,99.30
2023-04-14T18:14:43.561Z,99.51
2023-04-14T18:17:26.369Z,99.11
2023-04-14T18:20:42.683Z,98.98
2023-04-14T18:29:45.789Z,98.49
2023-04-14T18:34:07.134Z,98.52
2023-04-14T18:37:07.590Z,97.91
2023-04-14T18:40:02.535Z,97.86
2023-04-14T18:44:28.720Z,98.12
2023-04-14T18:58:32.803Z,99.03
2023-04-14T19:05:05.028Z,99.38
2023-04-14T19:08:26.258Z,98.95
2023-04-14T19:15:06.598Z,99.30
2023-04-14T19:18:03.225Z,99.74
2023-04-14T19:20:34.686Z,100.00
2023-04-14T19:23:47.926Z,99.76
2023-04-14T19:26:41.201Z,99.96
2023-04-14T19:29:23.207Z,99.64
2023-04-14T19:31:59.419Z,99.52
2023-04-14T19:34:45.008Z,99.86
2023-04-14T19:37:35.858Z,99.48
2023-04-14T19:40:26.909Z,99.45
2023-04-14T19:43:02.340Z,99.46
2023-04-14T19:46:11.454Z,99.42
2023-04-14T19:52:32.547Z,100.00
2023-04-14T19:55:22.356Z,100.00
2023-04-14T19:59:06.792Z,100.00
2023-04-14T20:01:54.067Z,100.00
2023-04-14T20:08:29.989Z,99.84
2023-04-14T20:12:21.623Z,99.18
2023-04-14T20:15:08.145Z,99.64
2023-04-14T20:22:43.416Z,100.00
2023-04-14T20:26:14.725Z,100.00
2023-04-14T20:29:05.555Z,100.00
2023-04-14T20:31:47.509Z,100.00
2023-04-14T20:34:25.151Z,100.00
2023-04-14T20:37:04.800Z,100.00
2023-04-14T20:42:48.437Z,100.00
2023-04-14T20:45:22.461Z,100.00
2023-04-14T20:47:53.999Z,100.00
2023-04-14T20:50:44.811Z,100.00
2023-04-14T20:53:15.261Z,100.00
2023-04-14T20:55:45.050Z,100.00
2023-04-14T20:58:16.306Z,100.00
2023-04-14T21:00:45.610Z,100.00
2023-04-14T21:03:14.530Z,100.00
2023-04-14T21:05:43.462Z,100.00
2023-04-14T21:08:12.837Z,100.00
2023-04-14T21:11:16.110Z,100.00
2023-04-14T21:15:39.889Z,100.00
2023-04-14T21:16:26.135Z,100.00
2023-04-14T21:18:55.199Z,100.00
2023-04-14T21:21:23.931Z,100.00
2023-04-14T21:23:52.855Z,100.00
2023-04-14T21:26:22.026Z,100.00
2023-04-14T21:28:52.204Z,100.00
2023-04-14T21:31:21.104Z,100.00
2023-04-14T21:33:49.808Z,100.00
2023-04-14T21:36:19.872Z,100.00
2023-04-14T21:38:48.765Z,100.00
2023-04-14T21:41:17.456Z,100.00
2023-04-14T21:43:46.077Z,100.00
2023-04-14T21:46:16.659Z,100.00
2023-04-14T21:48:45.769Z,100.00
2023-04-14T21:51:14.967Z,100.00
2023-04-14T21:53:43.685Z,100.00
2023-04-14T21:56:13.213Z,100.00
2023-04-14T21:58:42.036Z,100.00
2023-04-14T22:01:11.532Z,100.00
2023-04-14T22:03:43.066Z,100.00
2023-04-14T22:06:12.404Z,100.00
2023-04-14T22:08:42.141Z,100.00
2023-04-14T22:11:11.141Z,100.00
2023-04-14T22:13:39.910Z,100.00
2023-04-14T22:16:11.714Z,100.00
2023-04-14T22:18:42.183Z,100.00
2023-04-14T22:21:14.757Z,100.00
2023-04-14T22:23:44.755Z,100.00
2023-04-14T22:26:14.115Z,100.00
2023-04-14T22:28:43.201Z,100.00
2023-04-14T22:31:11.979Z,100.00
2023-04-14T22:33:44.435Z,100.00
2023-04-14T22:36:14.072Z,100.00
2023-04-14T22:38:47.569Z,100.00
2023-04-14T22:41:16.721Z,100.00
2023-04-14T22:43:45.477Z,100.00
2023-04-14T22:46:14.267Z,100.00
2023-04-14T22:48:44.481Z,100.00
2023-04-14T22:51:13.093Z,100.00
2023-04-14T22:53:41.833Z,100.00
2023-04-14T22:56:10.717Z,100.00
2023-04-14T22:58:39.956Z,100.00
2023-04-14T23:01:21.317Z,100.00
2023-04-14T23:03:53.692Z,100.00
2023-04-14T23:06:23.324Z,100.00
2023-04-14T23:08:52.923Z,100.00
2023-04-14T23:11:22.008Z,100.00
2023-04-14T23:13:51.550Z,100.00
2023-04-14T23:16:21.154Z,100.00
2023-04-14T23:18:52.537Z,100.00
2023-04-14T23:21:23.033Z,100.00
2023-04-14T23:23:52.526Z,100.00
2023-04-14T23:26:22.809Z,100.00
2023-04-14T23:28:53.076Z,100.00
2023-04-14T23:31:21.865Z,100.00
2023-04-14T23:33:53.018Z,100.00
2023-04-14T23:36:21.922Z,100.00
2023-04-14T23:38:50.642Z,100.00
2023-04-14T23:41:20.089Z,100.00
2023-04-14T23:43:49.629Z,100.00
2023-04-14T23:46:18.429Z,100.00
2023-04-14T23:48:47.450Z,100.00
2023-04-14T23:51:22.926Z,100.00
2023-04-14T23:53:52.118Z,100.00
2023-04-14T23:56:21.188Z,100.00
2023-04-14T23:58:49.829Z,100.00
